sensor_id;sensor_type;location;lat;lon;timestamp;temperature;humidity
21121;DHT22;12519;43.318;21.898;2023-01-04T00:00:33;9.9;100.0
21121;DHT22;12519;43.318;21.898;2023-01-04T00:05:10;9.9;100.0
21121;DHT22;12519;43.318;21.898;2023-01-04T00:09:46;9.9;100.0
21121;DHT22;12519;43.318;21.898;2023-01-04T00:14:22;9.8;100.0
21121;DHT22;12519;43.318;21.898;2023-01-04T00:18:59;9.8;100.0
21121;DHT22;12519;43.318;21.898;2023-01-04T00:23:37;9.8;100.0
21121;DHT22;12519;43.318;21.898;2023-01-04T00:28:15;9.9;100.0
21121;DHT22;12519;43.318;21.898;2023-01-04T00:32:51;9.9;100.0
21121;DHT22;12519;43.318;21.898;2023-01-04T00:37:29;10.0;100.0
21121;DHT22;12519;43.318;21.898;2023-01-04T00:42:06;10.0;100.0
21121;DHT22;12519;43.318;21.898;2023-01-04T00:46:44;10.0;100.0
21121;DHT22;12519;43.318;21.898;2023-01-04T00:51:20;10.0;100.0
21121;DHT22;12519;43.318;21.898;2023-01-04T00:56:00;9.9;100.0
21121;DHT22;12519;43.318;21.898;2023-01-04T01:00:39;9.9;100.0
21121;DHT22;12519;43.318;21.898;2023-01-04T01:05:16;9.8;100.0
21121;DHT22;12519;43.318;21.898;2023-01-04T01:09:53;9.8;100.0
21121;DHT22;12519;43.318;21.898;2023-01-04T01:14:29;9.8;100.0
21121;DHT22;12519;43.318;21.898;2023-01-04T01:19:06;9.7;100.0
21121;DHT22;12519;43.318;21.898;2023-01-04T01:23:43;9.7;100.0
21121;DHT22;12519;43.318;21.898;2023-01-04T01:28:20;9.6;100.0
21121;DHT22;12519;43.318;21.898;2023-01-04T01:32:56;9.6;100.0
21121;DHT22;12519;43.318;21.898;2023-01-04T01:37:32;9.4;100.0
21121;DHT22;12519;43.318;21.898;2023-01-04T01:42:21;9.4;100.0
21121;DHT22;12519;43.318;21.898;2023-01-04T01:46:57;9.4;100.0
21121;DHT22;12519;43.318;21.898;2023-01-04T01:51:36;9.4;100.0
21121;DHT22;12519;43.318;21.898;2023-01-04T01:56:19;9.5;100.0
21121;DHT22;12519;43.318;21.898;2023-01-04T02:00:57;9.5;100.0
21121;DHT22;12519;43.318;21.898;2023-01-04T02:05:37;9.6;100.0
21121;DHT22;12519;43.318;21.898;2023-01-04T02:10:16;9.6;100.0
21121;DHT22;12519;43.318;21.898;2023-01-04T02:14:53;9.6;100.0
21121;DHT22;12519;43.318;21.898;2023-01-04T02:20:25;9.6;100.0
21121;DHT22;12519;43.318;21.898;2023-01-04T02:26:36;9.6;100.0
21121;DHT22;12519;43.318;21.898;2023-01-04T02:31:56;9.6;100.0
21121;DHT22;12519;43.318;21.898;2023-01-04T02:37:07;9.5;100.0
21121;DHT22;12519;43.318;21.898;2023-01-04T02:42:21;9.5;100.0
21121;DHT22;12519;43.318;21.898;2023-01-04T02:47:14;9.6;100.0
21121;DHT22;12519;43.318;21.898;2023-01-04T02:51:51;9.6;100.0
21121;DHT22;12519;43.318;21.898;2023-01-04T02:57:19;9.7;100.0
21121;DHT22;12519;43.318;21.898;2023-01-04T03:02:52;9.7;100.0
21121;DHT22;12519;43.318;21.898;2023-01-04T03:07:54;9.8;100.0
21121;DHT22;12519;43.318;21.898;2023-01-04T03:13:04;9.8;100.0
21121;DHT22;12519;43.318;21.898;2023-01-04T03:18:08;9.8;100.0
21121;DHT22;12519;43.318;21.898;2023-01-04T03:23:04;9.8;100.0
21121;DHT22;12519;43.318;21.898;2023-01-04T03:27:52;10.0;100.0
21121;DHT22;12519;43.318;21.898;2023-01-04T03:32:54;10.0;100.0
21121;DHT22;12519;43.318;21.898;2023-01-04T03:38:01;10.1;100.0
21121;DHT22;12519;43.318;21.898;2023-01-04T03:43:12;10.1;100.0
21121;DHT22;12519;43.318;21.898;2023-01-04T03:48:20;10.1;100.0
21121;DHT22;12519;43.318;21.898;2023-01-04T03:53:10;10.1;100.0
21121;DHT22;12519;43.318;21.898;2023-01-04T03:57:51;10.2;100.0
21121;DHT22;12519;43.318;21.898;2023-01-04T04:02:35;10.2;100.0
21121;DHT22;12519;43.318;21.898;2023-01-04T04:07:11;10.0;100.0
21121;DHT22;12519;43.318;21.898;2023-01-04T04:11:49;10.0;100.0
21121;DHT22;12519;43.318;21.898;2023-01-04T04:16:27;9.9;100.0
21121;DHT22;12519;43.318;21.898;2023-01-04T04:21:05;9.9;100.0
21121;DHT22;12519;43.318;21.898;2023-01-04T04:25:41;10.8;100.0
21121;DHT22;12519;43.318;21.898;2023-01-04T04:30:18;10.8;100.0
21121;DHT22;12519;43.318;21.898;2023-01-04T04:34:54;10.8;100.0
21121;DHT22;12519;43.318;21.898;2023-01-04T04:39:30;11.6;100.0
21121;DHT22;12519;43.318;21.898;2023-01-04T04:44:15;11.6;100.0
21121;DHT22;12519;43.318;21.898;2023-01-04T04:48:56;11.8;100.0
21121;DHT22;12519;43.318;21.898;2023-01-04T04:53:33;11.8;100.0
21121;DHT22;12519;43.318;21.898;2023-01-04T04:58:10;11.9;100.0
21121;DHT22;12519;43.318;21.898;2023-01-04T05:02:47;11.9;100.0
21121;DHT22;12519;43.318;21.898;2023-01-04T05:07:23;11.1;100.0
21121;DHT22;12519;43.318;21.898;2023-01-04T05:12:00;11.1;100.0
21121;DHT22;12519;43.318;21.898;2023-01-04T05:16:37;10.3;100.0
21121;DHT22;12519;43.318;21.898;2023-01-04T05:21:13;10.3;100.0
21121;DHT22;12519;43.318;21.898;2023-01-04T05:26:00;10.1;100.0
21121;DHT22;12519;43.318;21.898;2023-01-04T05:30:38;10.1;100.0
21121;DHT22;12519;43.318;21.898;2023-01-04T05:35:16;9.9;100.0
21121;DHT22;12519;43.318;21.898;2023-01-04T05:39:52;9.9;100.0
21121;DHT22;12519;43.318;21.898;2023-01-04T05:44:28;9.9;100.0
21121;DHT22;12519;43.318;21.898;2023-01-04T05:49:04;10.2;100.0
21121;DHT22;12519;43.318;21.898;2023-01-04T05:53:41;10.2;100.0
21121;DHT22;12519;43.318;21.898;2023-01-04T05:58:17;10.4;100.0
21121;DHT22;12519;43.318;21.898;2023-01-04T06:02:54;10.4;100.0
21121;DHT22;12519;43.318;21.898;2023-01-04T06:07:32;10.4;100.0
21121;DHT22;12519;43.318;21.898;2023-01-04T06:12:11;10.4;100.0
21121;DHT22;12519;43.318;21.898;2023-01-04T06:16:48;10.4;100.0
21121;DHT22;12519;43.318;21.898;2023-01-04T06:21:24;10.4;100.0
21121;DHT22;12519;43.318;21.898;2023-01-04T06:26:01;10.2;100.0
21121;DHT22;12519;43.318;21.898;2023-01-04T06:30:37;10.2;100.0
21121;DHT22;12519;43.318;21.898;2023-01-04T06:35:14;9.9;100.0
21121;DHT22;12519;43.318;21.898;2023-01-04T06:39:53;9.9;100.0
21121;DHT22;12519;43.318;21.898;2023-01-04T06:44:30;9.9;100.0
21121;DHT22;12519;43.318;21.898;2023-01-04T06:49:06;10.0;100.0
21121;DHT22;12519;43.318;21.898;2023-01-04T06:53:42;10.0;100.0
21121;DHT22;12519;43.318;21.898;2023-01-04T06:58:19;10.1;100.0
21121;DHT22;12519;43.318;21.898;2023-01-04T07:02:55;10.1;100.0
21121;DHT22;12519;43.318;21.898;2023-01-04T07:07:34;10.0;100.0
21121;DHT22;12519;43.318;21.898;2023-01-04T07:12:11;10.0;100.0
21121;DHT22;12519;43.318;21.898;2023-01-04T07:16:47;9.9;100.0
21121;DHT22;12519;43.318;21.898;2023-01-04T07:21:23;9.9;100.0
21121;DHT22;12519;43.318;21.898;2023-01-04T07:26:02;9.6;100.0
21121;DHT22;12519;43.318;21.898;2023-01-04T07:30:39;9.6;100.0
21121;DHT22;12519;43.318;21.898;2023-01-04T07:35:17;9.6;100.0
21121;DHT22;12519;43.318;21.898;2023-01-04T07:39:54;9.4;100.0
21121;DHT22;12519;43.318;21.898;2023-01-04T07:44:32;9.4;100.0
21121;DHT22;12519;43.318;21.898;2023-01-04T07:49:16;9.4;100.0
21121;DHT22;12519;43.318;21.898;2023-01-04T07:53:53;9.4;100.0
21121;DHT22;12519;43.318;21.898;2023-01-04T07:58:33;9.5;100.0
21121;DHT22;12519;43.318;21.898;2023-01-04T08:03:11;9.5;100.0
21121;DHT22;12519;43.318;21.898;2023-01-04T08:07:47;9.5;100.0
21121;DHT22;12519;43.318;21.898;2023-01-04T08:12:23;9.5;100.0
21121;DHT22;12519;43.318;21.898;2023-01-04T08:16:59;9.5;100.0
21121;DHT22;12519;43.318;21.898;2023-01-04T08:21:37;9.5;100.0
21121;DHT22;12519;43.318;21.898;2023-01-04T08:26:18;9.4;100.0
21121;DHT22;12519;43.318;21.898;2023-01-04T08:30:54;9.4;100.0
21121;DHT22;12519;43.318;21.898;2023-01-04T08:35:30;9.4;100.0
21121;DHT22;12519;43.318;21.898;2023-01-04T08:40:11;9.4;100.0
21121;DHT22;12519;43.318;21.898;2023-01-04T08:44:48;9.4;100.0
21121;DHT22;12519;43.318;21.898;2023-01-04T08:49:24;9.3;100.0
21121;DHT22;12519;43.318;21.898;2023-01-04T08:54:01;9.3;100.0
21121;DHT22;12519;43.318;21.898;2023-01-04T08:58:38;9.2;100.0
21121;DHT22;12519;43.318;21.898;2023-01-04T09:03:15;9.2;100.0
21121;DHT22;12519;43.318;21.898;2023-01-04T09:07:51;9.2;100.0
21121;DHT22;12519;43.318;21.898;2023-01-04T09:12:28;9.2;100.0
21121;DHT22;12519;43.318;21.898;2023-01-04T09:17:04;9.3;100.0
21121;DHT22;12519;43.318;21.898;2023-01-04T09:21:40;9.3;100.0
21121;DHT22;12519;43.318;21.898;2023-01-04T09:26:21;9.4;100.0
21121;DHT22;12519;43.318;21.898;2023-01-04T09:30:58;9.4;100.0
21121;DHT22;12519;43.318;21.898;2023-01-04T09:35:38;9.5;100.0
21121;DHT22;12519;43.318;21.898;2023-01-04T09:40:30;9.5;100.0
21121;DHT22;12519;43.318;21.898;2023-01-04T09:45:22;9.5;100.0
21121;DHT22;12519;43.318;21.898;2023-01-04T09:50:17;9.4;100.0
21121;DHT22;12519;43.318;21.898;2023-01-04T09:55:20;9.4;100.0
21121;DHT22;12519;43.318;21.898;2023-01-04T10:00:23;9.3;100.0
21121;DHT22;12519;43.318;21.898;2023-01-04T10:05:21;9.3;100.0
21121;DHT22;12519;43.318;21.898;2023-01-04T10:10:15;9.3;100.0
21121;DHT22;12519;43.318;21.898;2023-01-04T10:15:34;9.3;100.0
21121;DHT22;12519;43.318;21.898;2023-01-04T10:21:32;9.3;100.0
21121;DHT22;12519;43.318;21.898;2023-01-04T10:26:35;9.4;100.0
21121;DHT22;12519;43.318;21.898;2023-01-04T10:31:37;9.4;100.0
21121;DHT22;12519;43.318;21.898;2023-01-04T10:36:31;9.5;100.0
21121;DHT22;12519;43.318;21.898;2023-01-04T10:41:20;9.5;100.0
21121;DHT22;12519;43.318;21.898;2023-01-04T10:46:13;9.4;100.0
21121;DHT22;12519;43.318;21.898;2023-01-04T10:50:58;9.4;100.0
21121;DHT22;12519;43.318;21.898;2023-01-04T10:55:49;9.4;100.0
21121;DHT22;12519;43.318;21.898;2023-01-04T11:00:40;9.4;100.0
21121;DHT22;12519;43.318;21.898;2023-01-04T11:05:30;9.4;100.0
21121;DHT22;12519;43.318;21.898;2023-01-04T11:10:23;9.4;100.0
21121;DHT22;12519;43.318;21.898;2023-01-04T11:15:04;9.4;100.0
21121;DHT22;12519;43.318;21.898;2023-01-04T11:19:42;9.5;100.0
21121;DHT22;12519;43.318;21.898;2023-01-04T11:24:19;9.5;100.0
21121;DHT22;12519;43.318;21.898;2023-01-04T11:29:05;9.5;100.0
21121;DHT22;12519;43.318;21.898;2023-01-04T11:33:54;9.5;100.0
21121;DHT22;12519;43.318;21.898;2023-01-04T11:38:32;9.5;100.0
21121;DHT22;12519;43.318;21.898;2023-01-04T11:43:17;9.5;100.0
21121;DHT22;12519;43.318;21.898;2023-01-04T11:47:57;9.6;100.0
21121;DHT22;12519;43.318;21.898;2023-01-04T11:52:36;9.6;100.0
21121;DHT22;12519;43.318;21.898;2023-01-04T11:57:18;9.6;100.0
21121;DHT22;12519;43.318;21.898;2023-01-04T12:02:27;9.6;100.0
21121;DHT22;12519;43.318;21.898;2023-01-04T12:07:14;9.6;100.0
21121;DHT22;12519;43.318;21.898;2023-01-04T12:12:05;9.6;100.0
21121;DHT22;12519;43.318;21.898;2023-01-04T12:26:14;9.8;100.0
21121;DHT22;12519;43.318;21.898;2023-01-04T12:30:51;9.8;100.0
21121;DHT22;12519;43.318;21.898;2023-01-04T12:36:03;9.8;100.0
21121;DHT22;12519;43.318;21.898;2023-01-04T12:40:55;9.8;100.0
21121;DHT22;12519;43.318;21.898;2023-01-04T12:45:31;9.8;100.0
21121;DHT22;12519;43.318;21.898;2023-01-04T12:50:18;9.9;100.0
21121;DHT22;12519;43.318;21.898;2023-01-04T12:55:00;9.9;100.0
21121;DHT22;12519;43.318;21.898;2023-01-04T12:59:52;10.0;100.0
21121;DHT22;12519;43.318;21.898;2023-01-04T13:04:40;10.0;100.0
21121;DHT22;12519;43.318;21.898;2023-01-04T13:09:21;10.0;100.0
21121;DHT22;12519;43.318;21.898;2023-01-04T13:14:09;10.0;100.0
21121;DHT22;12519;43.318;21.898;2023-01-04T13:18:53;10.1;100.0
21121;DHT22;12519;43.318;21.898;2023-01-04T13:23:31;10.1;100.0
21121;DHT22;12519;43.318;21.898;2023-01-04T13:28:18;10.1;100.0
21121;DHT22;12519;43.318;21.898;2023-01-04T13:32:54;10.1;100.0
21121;DHT22;12519;43.318;21.898;2023-01-04T13:37:39;10.1;100.0
21121;DHT22;12519;43.318;21.898;2023-01-04T13:42:31;10.1;100.0
21121;DHT22;12519;43.318;21.898;2023-01-04T13:47:08;10.2;100.0
21121;DHT22;12519;43.318;21.898;2023-01-04T13:51:44;10.2;100.0
21121;DHT22;12519;43.318;21.898;2023-01-04T13:56:26;10.4;100.0
21121;DHT22;12519;43.318;21.898;2023-01-04T14:01:19;10.4;100.0
21121;DHT22;12519;43.318;21.898;2023-01-04T14:06:21;10.4;100.0
21121;DHT22;12519;43.318;21.898;2023-01-04T14:10:58;10.4;100.0
21121;DHT22;12519;43.318;21.898;2023-01-04T14:15:35;10.4;100.0
21121;DHT22;12519;43.318;21.898;2023-01-04T14:20:35;10.4;100.0
21121;DHT22;12519;43.318;21.898;2023-01-04T14:25:43;10.4;100.0
21121;DHT22;12519;43.318;21.898;2023-01-04T14:30:25;10.4;100.0
21121;DHT22;12519;43.318;21.898;2023-01-04T14:35:13;10.4;100.0
21121;DHT22;12519;43.318;21.898;2023-01-04T14:39:50;10.3;100.0
21121;DHT22;12519;43.318;21.898;2023-01-04T14:44:30;10.3;100.0
21121;DHT22;12519;43.318;21.898;2023-01-04T14:49:06;10.4;100.0
21121;DHT22;12519;43.318;21.898;2023-01-04T14:53:43;10.4;100.0
21121;DHT22;12519;43.318;21.898;2023-01-04T14:58:20;10.4;100.0
21121;DHT22;12519;43.318;21.898;2023-01-04T15:02:56;10.4;100.0
21121;DHT22;12519;43.318;21.898;2023-01-04T15:07:38;10.4;100.0
21121;DHT22;12519;43.318;21.898;2023-01-04T15:12:15;10.4;100.0
21121;DHT22;12519;43.318;21.898;2023-01-04T15:16:51;10.4;100.0
21121;DHT22;12519;43.318;21.898;2023-01-04T15:21:27;10.4;100.0
21121;DHT22;12519;43.318;21.898;2023-01-04T15:26:05;10.4;100.0
21121;DHT22;12519;43.318;21.898;2023-01-04T15:30:43;10.3;100.0
21121;DHT22;12519;43.318;21.898;2023-01-04T15:35:20;10.3;100.0
21121;DHT22;12519;43.318;21.898;2023-01-04T15:39:57;10.2;100.0
21121;DHT22;12519;43.318;21.898;2023-01-04T15:44:33;10.2;100.0
21121;DHT22;12519;43.318;21.898;2023-01-04T15:49:09;10.1;100.0
21121;DHT22;12519;43.318;21.898;2023-01-04T15:53:50;10.1;100.0
21121;DHT22;12519;43.318;21.898;2023-01-04T15:58:27;10.1;100.0
21121;DHT22;12519;43.318;21.898;2023-01-04T16:03:04;10.1;100.0
21121;DHT22;12519;43.318;21.898;2023-01-04T16:07:41;10.2;100.0
21121;DHT22;12519;43.318;21.898;2023-01-04T16:12:17;10.2;100.0
21121;DHT22;12519;43.318;21.898;2023-01-04T16:16:54;10.4;100.0
21121;DHT22;12519;43.318;21.898;2023-01-04T16:21:30;10.4;100.0
21121;DHT22;12519;43.318;21.898;2023-01-04T16:26:11;10.4;100.0
21121;DHT22;12519;43.318;21.898;2023-01-04T16:30:52;10.2;100.0
21121;DHT22;12519;43.318;21.898;2023-01-04T16:35:28;10.2;100.0
21121;DHT22;12519;43.318;21.898;2023-01-04T16:40:07;9.9;100.0
21121;DHT22;12519;43.318;21.898;2023-01-04T16:44:43;9.9;100.0
21121;DHT22;12519;43.318;21.898;2023-01-04T16:49:19;10.0;100.0
21121;DHT22;12519;43.318;21.898;2023-01-04T16:53:57;10.0;100.0
21121;DHT22;12519;43.318;21.898;2023-01-04T16:58:34;10.0;100.0
21121;DHT22;12519;43.318;21.898;2023-01-04T17:03:10;10.0;100.0
21121;DHT22;12519;43.318;21.898;2023-01-04T17:07:46;10.2;100.0
21121;DHT22;12519;43.318;21.898;2023-01-04T17:12:22;10.2;100.0
21121;DHT22;12519;43.318;21.898;2023-01-04T17:16:58;10.3;100.0
21121;DHT22;12519;43.318;21.898;2023-01-04T17:21:34;10.3;100.0
21121;DHT22;12519;43.318;21.898;2023-01-04T17:26:17;10.3;100.0
21121;DHT22;12519;43.318;21.898;2023-01-04T17:30:55;10.4;100.0
21121;DHT22;12519;43.318;21.898;2023-01-04T17:35:36;10.4;100.0
21121;DHT22;12519;43.318;21.898;2023-01-04T17:40:12;10.4;100.0
21121;DHT22;12519;43.318;21.898;2023-01-04T17:44:48;10.4;100.0
21121;DHT22;12519;43.318;21.898;2023-01-04T17:49:24;10.4;100.0
21121;DHT22;12519;43.318;21.898;2023-01-04T17:54:04;10.4;100.0
21121;DHT22;12519;43.318;21.898;2023-01-04T17:58:44;10.5;100.0
21121;DHT22;12519;43.318;21.898;2023-01-04T18:03:22;10.5;100.0
21121;DHT22;12519;43.318;21.898;2023-01-04T18:07:58;10.2;100.0
21121;DHT22;12519;43.318;21.898;2023-01-04T18:12:34;10.2;100.0
21121;DHT22;12519;43.318;21.898;2023-01-04T18:17:12;10.0;100.0
21121;DHT22;12519;43.318;21.898;2023-01-04T18:21:49;10.0;100.0
21121;DHT22;12519;43.318;21.898;2023-01-04T18:26:25;10.0;100.0
21121;DHT22;12519;43.318;21.898;2023-01-04T18:31:12;9.9;100.0
21121;DHT22;12519;43.318;21.898;2023-01-04T18:35:51;9.9;100.0
21121;DHT22;12519;43.318;21.898;2023-01-04T18:40:27;9.8;100.0
21121;DHT22;12519;43.318;21.898;2023-01-04T18:45:06;9.8;100.0
21121;DHT22;12519;43.318;21.898;2023-01-04T18:49:42;9.8;100.0
21121;DHT22;12519;43.318;21.898;2023-01-04T18:54:18;9.8;100.0
21121;DHT22;12519;43.318;21.898;2023-01-04T18:58:54;9.8;100.0
21121;DHT22;12519;43.318;21.898;2023-01-04T19:03:36;9.8;100.0
21121;DHT22;12519;43.318;21.898;2023-01-04T19:08:12;9.9;100.0
21121;DHT22;12519;43.318;21.898;2023-01-04T19:12:48;9.9;100.0
21121;DHT22;12519;43.318;21.898;2023-01-04T19:17:24;9.9;100.0
21121;DHT22;12519;43.318;21.898;2023-01-04T19:22:01;9.9;100.0
21121;DHT22;12519;43.318;21.898;2023-01-04T19:26:38;9.9;100.0
21121;DHT22;12519;43.318;21.898;2023-01-04T19:31:18;9.9;100.0
21121;DHT22;12519;43.318;21.898;2023-01-04T19:35:56;9.9;100.0
21121;DHT22;12519;43.318;21.898;2023-01-04T19:40:33;9.9;100.0
21121;DHT22;12519;43.318;21.898;2023-01-04T19:45:10;9.9;100.0
21121;DHT22;12519;43.318;21.898;2023-01-04T19:49:47;10.0;100.0
21121;DHT22;12519;43.318;21.898;2023-01-04T19:54:24;10.0;100.0
21121;DHT22;12519;43.318;21.898;2023-01-04T19:59:01;10.2;100.0
21121;DHT22;12519;43.318;21.898;2023-01-04T20:03:37;10.2;100.0
21121;DHT22;12519;43.318;21.898;2023-01-04T20:08:13;10.4;100.0
21121;DHT22;12519;43.318;21.898;2023-01-04T20:12:49;10.4;100.0
21121;DHT22;12519;43.318;21.898;2023-01-04T20:17:25;10.6;100.0
21121;DHT22;12519;43.318;21.898;2023-01-04T20:22:01;10.6;100.0
21121;DHT22;12519;43.318;21.898;2023-01-04T20:26:39;10.6;100.0
21121;DHT22;12519;43.318;21.898;2023-01-04T20:31:18;10.6;100.0
21121;DHT22;12519;43.318;21.898;2023-01-04T20:35:55;10.6;100.0
21121;DHT22;12519;43.318;21.898;2023-01-04T20:40:32;10.5;100.0
21121;DHT22;12519;43.318;21.898;2023-01-04T20:45:13;10.5;100.0
21121;DHT22;12519;43.318;21.898;2023-01-04T20:49:49;10.6;100.0
21121;DHT22;12519;43.318;21.898;2023-01-04T20:54:26;10.6;100.0
21121;DHT22;12519;43.318;21.898;2023-01-04T20:59:03;10.6;100.0
21121;DHT22;12519;43.318;21.898;2023-01-04T21:03:41;10.6;100.0
21121;DHT22;12519;43.318;21.898;2023-01-04T21:08:18;10.5;100.0
21121;DHT22;12519;43.318;21.898;2023-01-04T21:12:54;10.5;100.0
21121;DHT22;12519;43.318;21.898;2023-01-04T21:17:31;10.4;100.0
21121;DHT22;12519;43.318;21.898;2023-01-04T21:22:07;10.4;100.0
21121;DHT22;12519;43.318;21.898;2023-01-04T21:26:43;10.4;100.0
21121;DHT22;12519;43.318;21.898;2023-01-04T21:31:23;10.4;100.0
21121;DHT22;12519;43.318;21.898;2023-01-04T21:36:09;10.4;100.0
21121;DHT22;12519;43.318;21.898;2023-01-04T21:40:45;10.3;100.0
21121;DHT22;12519;43.318;21.898;2023-01-04T21:45:22;10.3;100.0
21121;DHT22;12519;43.318;21.898;2023-01-04T21:49:58;10.4;100.0
21121;DHT22;12519;43.318;21.898;2023-01-04T21:54:35;10.4;100.0
21121;DHT22;12519;43.318;21.898;2023-01-04T21:59:11;10.4;100.0
21121;DHT22;12519;43.318;21.898;2023-01-04T22:03:47;10.4;100.0
21121;DHT22;12519;43.318;21.898;2023-01-04T22:08:25;10.4;100.0
21121;DHT22;12519;43.318;21.898;2023-01-04T22:13:01;10.4;100.0
21121;DHT22;12519;43.318;21.898;2023-01-04T22:17:37;10.5;100.0
21121;DHT22;12519;43.318;21.898;2023-01-04T22:22:14;10.5;100.0
21121;DHT22;12519;43.318;21.898;2023-01-04T22:26:50;10.5;100.0
21121;DHT22;12519;43.318;21.898;2023-01-04T22:31:27;10.6;100.0
21121;DHT22;12519;43.318;21.898;2023-01-04T22:36:05;10.6;100.0
21121;DHT22;12519;43.318;21.898;2023-01-04T22:40:47;10.6;100.0
21121;DHT22;12519;43.318;21.898;2023-01-04T22:45:23;10.6;100.0
21121;DHT22;12519;43.318;21.898;2023-01-04T22:49:59;10.6;100.0
21121;DHT22;12519;43.318;21.898;2023-01-04T22:54:35;10.6;100.0
21121;DHT22;12519;43.318;21.898;2023-01-04T22:59:11;10.7;100.0
21121;DHT22;12519;43.318;21.898;2023-01-04T23:03:47;10.7;100.0
21121;DHT22;12519;43.318;21.898;2023-01-04T23:08:24;10.7;100.0
21121;DHT22;12519;43.318;21.898;2023-01-04T23:13:00;10.7;100.0
21121;DHT22;12519;43.318;21.898;2023-01-04T23:17:36;10.7;100.0
21121;DHT22;12519;43.318;21.898;2023-01-04T23:22:12;10.7;100.0
21121;DHT22;12519;43.318;21.898;2023-01-04T23:26:49;10.7;100.0
21121;DHT22;12519;43.318;21.898;2023-01-04T23:31:29;10.6;100.0
21121;DHT22;12519;43.318;21.898;2023-01-04T23:36:12;10.6;100.0
21121;DHT22;12519;43.318;21.898;2023-01-04T23:40:55;10.6;100.0
21121;DHT22;12519;43.318;21.898;2023-01-04T23:45:31;10.6;100.0
21121;DHT22;12519;43.318;21.898;2023-01-04T23:50:08;10.4;100.0
21121;DHT22;12519;43.318;21.898;2023-01-04T23:54:45;10.4;100.0
21121;DHT22;12519;43.318;21.898;2023-01-04T23:59:23;10.3;100.0
